createdAt,value
2022-11-07T00:06:21.148Z,239.04
2022-11-07T00:11:53.233Z,238.00
2022-11-07T00:17:25.093Z,235.44
2022-11-07T00:22:56.797Z,236.62
2022-11-07T00:28:28.552Z,234.60
2022-11-07T00:34:00.378Z,234.43
2022-11-07T00:39:32.168Z,235.44
2022-11-07T00:50:33.325Z,235.94
2022-11-07T00:56:05.310Z,233.26
2022-11-07T01:01:37.706Z,234.60
2022-11-07T01:07:09.339Z,234.43
2022-11-07T01:12:41.154Z,236.80
2022-11-07T01:18:12.511Z,235.27
2022-11-07T01:23:43.966Z,236.97
2022-11-07T01:29:16.191Z,234.76
2022-11-07T01:34:52.291Z,231.29
2022-11-07T01:40:23.996Z,229.19
2022-11-07T01:45:55.805Z,227.60
2022-11-07T01:51:27.610Z,225.25
2022-11-07T01:57:02.879Z,224.79
2022-11-07T02:02:36.345Z,223.11
2022-11-07T02:08:09.609Z,218.36
2022-11-07T02:13:42.775Z,216.77
2022-11-07T02:19:16.500Z,217.35
2022-11-07T02:24:48.299Z,216.06
2022-11-07T02:30:20.298Z,215.21
2022-11-07T02:35:53.566Z,211.87
2022-11-07T02:41:25.440Z,211.33
2022-11-07T02:46:58.841Z,212.42
2022-11-07T02:52:32.138Z,211.46
2022-11-07T02:58:04.371Z,210.92
2022-11-07T03:03:39.633Z,210.24
2022-11-07T03:09:14.874Z,210.11
2022-11-07T03:14:48.053Z,208.90
2022-11-07T03:20:19.863Z,210.65
2022-11-07T03:25:52.052Z,209.84
2022-11-07T03:31:23.924Z,212.01
2022-11-07T03:36:58.966Z,213.39
2022-11-07T03:42:32.491Z,214.08
2022-11-07T03:48:04.688Z,214.08
2022-11-07T03:53:38.213Z,218.65
2022-11-07T03:59:10.688Z,217.06
2022-11-07T04:04:42.749Z,218.07
2022-11-07T04:10:15.005Z,218.50
2022-11-07T04:15:46.635Z,217.20
2022-11-07T04:21:18.592Z,217.92
2022-11-07T04:26:50.332Z,220.26
2022-11-07T04:32:22.227Z,221.01
2022-11-07T04:37:54.319Z,222.65
2022-11-07T04:43:26.435Z,216.91
2022-11-07T04:48:58.498Z,220.71
2022-11-07T04:54:30.284Z,221.01
2022-11-07T05:00:03.514Z,223.26
2022-11-07T05:05:35.871Z,220.41
2022-11-07T05:11:09.578Z,217.78
2022-11-07T05:16:44.675Z,219.38
2022-11-07T05:22:16.732Z,218.07
2022-11-07T05:27:48.958Z,219.53
2022-11-07T05:33:21.035Z,220.86
2022-11-07T05:38:52.921Z,222.81
2022-11-07T05:44:25.500Z,227.60
2022-11-07T05:49:57.319Z,226.97
2022-11-07T05:55:29.056Z,226.97
2022-11-07T06:01:00.890Z,225.56
2022-11-07T06:06:32.727Z,226.03
2022-11-07T06:17:34.900Z,225.41
2022-11-07T06:23:06.768Z,224.33
2022-11-07T06:28:38.647Z,223.72
2022-11-07T06:34:10.622Z,224.18
2022-11-07T06:39:42.385Z,220.41
2022-11-07T06:45:14.888Z,219.82
2022-11-07T06:50:47.034Z,220.56
2022-11-07T06:56:18.794Z,217.78
2022-11-07T07:01:50.780Z,217.78
2022-11-07T07:07:23.060Z,217.35
2022-11-07T07:12:55.320Z,216.49
2022-11-07T07:18:27.562Z,212.42
2022-11-07T07:23:59.828Z,208.24
2022-11-07T07:29:31.956Z,202.46
2022-11-07T07:35:04.008Z,198.42
2022-11-07T07:40:36.815Z,194.08
2022-11-07T07:46:08.957Z,189.04
2022-11-07T07:51:40.992Z,185.62
2022-11-07T07:57:13.353Z,179.82
2022-11-07T08:02:47.987Z,174.55
2022-11-07T08:08:20.075Z,170.11
2022-11-07T08:13:52.256Z,167.21
2022-11-07T08:19:24.263Z,161.70
2022-11-07T08:24:59.019Z,159.23
2022-11-07T08:30:31.196Z,154.66
2022-11-07T08:36:03.461Z,152.82
2022-11-07T08:41:35.800Z,148.86
2022-11-07T08:47:08.704Z,144.61
2022-11-07T08:52:39.936Z,142.63
2022-11-07T08:58:11.705Z,142.87
2022-11-07T09:03:48.675Z,139.18
2022-11-07T09:09:16.748Z,134.58
2022-11-07T09:14:47.147Z,138.26
2022-11-07T09:20:18.865Z,136.67
2022-11-07T09:25:50.693Z,136.67
2022-11-07T09:31:22.256Z,135.89
2022-11-07T09:36:54.318Z,136.56
2022-11-07T09:42:26.433Z,135.45
2022-11-07T09:53:30.640Z,136.34
2022-11-07T09:59:03.034Z,137.01
2022-11-07T10:04:35.129Z,132.02
2022-11-07T10:10:06.928Z,133.29
2022-11-07T10:15:38.670Z,132.97
2022-11-07T10:21:36.644Z,133.39
2022-11-07T10:26:42.698Z,135.23
2022-11-07T10:32:14.539Z,134.47
2022-11-07T10:37:46.775Z,134.58
2022-11-07T10:43:19.115Z,133.93
2022-11-07T10:48:51.719Z,135.23
2022-11-07T10:54:23.343Z,134.36
2022-11-07T11:00:01.121Z,135.01
2022-11-07T11:05:32.907Z,134.68
2022-11-07T11:11:04.740Z,134.47
2022-11-07T11:16:36.751Z,133.82
2022-11-07T11:22:09.758Z,134.36
2022-11-07T11:24:21.467Z,137.12
2022-11-07T11:30:01.601Z,139.29
2022-11-07T11:35:36.346Z,138.72
2022-11-07T11:41:10.293Z,138.26
2022-11-07T11:46:37.024Z,139.53
2022-11-07T11:52:08.907Z,138.37
2022-11-07T11:57:40.985Z,138.37
2022-11-07T12:03:12.784Z,138.14
2022-11-07T12:08:44.634Z,138.83
2022-11-07T12:14:18.497Z,137.46
2022-11-07T12:19:50.632Z,137.80
2022-11-07T12:25:22.312Z,139.76
2022-11-07T12:30:54.102Z,138.72
2022-11-07T12:36:31.947Z,138.49
2022-11-07T12:42:04.302Z,138.72
2022-11-07T12:53:14.631Z,139.06
2022-11-07T12:58:46.398Z,138.60
2022-11-07T13:04:18.140Z,139.18
2022-11-07T13:09:49.751Z,138.14
2022-11-07T13:15:21.813Z,139.06
2022-11-07T13:20:59.197Z,139.53
2022-11-07T13:32:03.028Z,138.83
2022-11-07T13:37:34.632Z,139.53
2022-11-07T13:43:06.532Z,139.29
2022-11-07T13:48:38.635Z,139.64
2022-11-07T13:54:10.543Z,136.90
2022-11-07T13:59:42.348Z,138.03
2022-11-07T14:05:16.873Z,138.95
2022-11-07T14:10:46.021Z,141.06
2022-11-07T14:16:17.948Z,140.23
2022-11-07T14:21:50.018Z,140.23
2022-11-07T14:27:22.184Z,141.54
2022-11-07T14:43:57.808Z,145.87
2022-11-07T14:49:29.883Z,145.62
2022-11-07T14:55:01.727Z,145.11
2022-11-07T15:00:33.857Z,145.11
2022-11-07T15:06:05.671Z,145.74
2022-11-07T15:11:37.724Z,146.38
2022-11-07T15:22:41.321Z,147.42
2022-11-07T15:33:45.418Z,150.07
2022-11-07T15:39:17.151Z,150.20
2022-11-07T15:50:20.509Z,151.43
2022-11-07T15:55:58.446Z,152.68
2022-11-07T16:01:32.376Z,153.66
2022-11-07T16:12:38.473Z,158.18
2022-11-07T16:18:12.863Z,159.99
2022-11-07T16:23:44.653Z,161.08
2022-11-07T16:29:17.066Z,162.17
2022-11-07T16:45:53.579Z,167.88
2022-11-07T16:51:25.676Z,170.28
2022-11-07T16:56:57.716Z,170.63
2022-11-07T17:02:31.019Z,171.68
2022-11-07T17:08:02.903Z,172.57
2022-11-07T17:13:35.167Z,172.93
2022-11-07T17:19:07.316Z,174.37
2022-11-07T17:24:39.941Z,176.77
2022-11-07T17:30:11.949Z,177.15
2022-11-07T17:35:44.277Z,178.29
2022-11-07T17:41:16.362Z,179.82
2022-11-07T17:46:48.139Z,177.90
2022-11-07T17:52:20.409Z,180.02
2022-11-07T17:57:52.809Z,180.80
2022-11-07T18:03:24.955Z,181.98
2022-11-07T18:08:57.718Z,182.98
2022-11-07T18:14:29.427Z,183.78
2022-11-07T18:20:01.342Z,184.19
2022-11-07T18:25:33.562Z,184.89
2022-11-07T18:31:06.061Z,185.20
2022-11-07T18:36:38.406Z,186.89
2022-11-07T18:42:10.607Z,189.15
2022-11-07T18:47:42.861Z,189.59
2022-11-07T18:53:14.646Z,192.15
2022-11-07T18:58:46.826Z,195.23
2022-11-07T19:04:18.831Z,196.05
2022-11-07T19:09:50.962Z,196.75
2022-11-07T19:15:23.137Z,198.90
2022-11-07T19:20:55.169Z,200.24
2022-11-07T19:26:26.972Z,201.96
2022-11-07T19:31:59.022Z,201.96
2022-11-07T19:37:31.025Z,202.96
2022-11-07T19:43:03.128Z,201.34
2022-11-07T19:48:35.462Z,205.63
2022-11-07T19:54:07.619Z,208.37
2022-11-07T19:59:39.810Z,206.93
2022-11-07T20:05:11.555Z,207.98
2022-11-07T20:10:43.104Z,209.17
2022-11-07T20:16:15.128Z,211.60
2022-11-07T20:21:46.983Z,214.50
2022-11-07T20:27:18.963Z,212.42
2022-11-07T20:32:50.809Z,214.93
2022-11-07T20:43:55.290Z,216.63
2022-11-07T20:49:27.483Z,215.63
2022-11-07T20:54:59.525Z,216.91
2022-11-07T21:00:31.518Z,216.63
2022-11-07T21:06:03.194Z,214.79
2022-11-07T21:11:35.273Z,212.70
2022-11-07T21:17:07.552Z,214.22
2022-11-07T21:22:39.549Z,213.53
2022-11-07T21:28:11.469Z,213.53
2022-11-07T21:33:43.338Z,215.21
2022-11-07T21:39:15.489Z,215.91
2022-11-07T21:44:47.653Z,217.35
2022-11-07T21:50:42.906Z,219.67
2022-11-07T21:55:52.035Z,219.53
2022-11-07T22:01:24.141Z,221.45
2022-11-07T22:06:56.104Z,224.64
2022-11-07T22:12:28.458Z,224.64
2022-11-07T22:18:00.563Z,223.57
2022-11-07T22:23:32.431Z,221.45
2022-11-07T22:29:04.572Z,224.18
2022-11-07T22:34:36.224Z,226.50
2022-11-07T22:40:10.550Z,227.76
2022-11-07T22:45:42.794Z,228.39
2022-11-07T22:51:14.598Z,231.78
2022-11-07T22:56:46.658Z,233.10
2022-11-07T23:02:18.459Z,237.65
2022-11-07T23:07:50.413Z,237.14
2022-11-07T23:13:22.723Z,237.31
2022-11-07T23:18:54.789Z,238.34
2022-11-07T23:24:26.515Z,236.62
2022-11-07T23:29:58.256Z,237.31
2022-11-07T23:35:30.061Z,236.11
2022-11-07T23:41:01.842Z,234.09
2022-11-07T23:46:35.340Z,234.93
2022-11-07T23:57:44.151Z,232.76
